createdAt,value
2019-03-24T00:00:49.380Z,81.26
2019-03-24T00:04:52.911Z,81.24
2019-03-24T00:08:54.830Z,81.33
2019-03-24T00:12:56.877Z,81.43
2019-03-24T00:16:58.796Z,81.55
2019-03-24T00:21:08.298Z,81.41
2019-03-24T00:25:10.551Z,81.85
2019-03-24T00:29:12.502Z,82.07
2019-03-24T00:33:14.396Z,81.78
2019-03-24T00:37:16.306Z,82.48
2019-03-24T00:41:18.219Z,81.92
2019-03-24T00:45:20.144Z,82.15
2019-03-24T00:49:22.036Z,82.16
2019-03-24T00:53:24.002Z,81.88
2019-03-24T00:57:25.869Z,81.83
2019-03-24T01:01:27.789Z,81.91
2019-03-24T01:05:29.698Z,82.10
2019-03-24T01:09:31.879Z,82.57
2019-03-24T01:13:33.774Z,82.30
2019-03-24T01:17:35.747Z,82.38
2019-03-24T01:21:37.846Z,82.39
2019-03-24T01:25:40.761Z,82.26
2019-03-24T01:29:42.671Z,81.95
2019-03-24T01:33:44.575Z,82.44
2019-03-24T01:37:46.471Z,82.63
2019-03-24T01:41:48.385Z,82.52
2019-03-24T01:45:58.100Z,82.46
2019-03-24T01:49:53.918Z,82.68
2019-03-24T01:53:55.830Z,82.45
2019-03-24T01:57:57.742Z,82.59
2019-03-24T02:01:59.664Z,82.58
2019-03-24T02:06:01.646Z,82.61
2019-03-24T02:10:04.714Z,83.04
2019-03-24T02:14:06.605Z,83.09
2019-03-24T02:18:08.608Z,82.88
2019-03-24T02:22:10.594Z,82.78
2019-03-24T02:26:12.515Z,83.59
2019-03-24T02:30:14.787Z,84.32
2019-03-24T02:34:16.734Z,84.62
2019-03-24T02:38:18.675Z,84.25
2019-03-24T02:42:20.558Z,84.15
2019-03-24T02:46:24.790Z,85.06
2019-03-24T02:50:27.025Z,84.79
2019-03-24T02:54:29.089Z,84.60
2019-03-24T02:58:30.990Z,84.79
2019-03-24T03:02:32.916Z,84.69
2019-03-24T03:06:34.925Z,84.25
2019-03-24T03:10:36.816Z,84.04
2019-03-24T03:14:38.811Z,84.20
2019-03-24T03:18:40.875Z,84.26
2019-03-24T03:22:42.773Z,84.58
2019-03-24T03:26:44.749Z,84.77
2019-03-24T03:30:46.658Z,84.83
2019-03-24T03:34:49.609Z,84.88
2019-03-24T03:38:52.007Z,85.25
2019-03-24T03:42:53.939Z,85.53
2019-03-24T03:46:55.835Z,85.47
2019-03-24T03:50:57.791Z,85.55
2019-03-24T03:54:59.705Z,85.39
2019-03-24T03:59:01.616Z,85.10
2019-03-24T04:03:05.356Z,84.84
2019-03-24T04:07:08.208Z,84.89
2019-03-24T04:11:28.939Z,85.35
2019-03-24T04:15:30.901Z,85.45
2019-03-24T04:19:32.837Z,85.49
2019-03-24T04:23:34.732Z,85.98
2019-03-24T04:27:36.675Z,86.71
2019-03-24T04:31:38.563Z,86.57
2019-03-24T04:35:41.449Z,86.65
2019-03-24T04:39:43.346Z,86.89
2019-03-24T04:43:45.264Z,87.40
2019-03-24T04:47:48.130Z,87.66
2019-03-24T04:51:50.038Z,87.28
2019-03-24T04:55:51.961Z,88.09
2019-03-24T04:59:54.845Z,88.48
2019-03-24T05:03:56.802Z,88.00
2019-03-24T05:07:59.999Z,87.60
2019-03-24T05:12:01.958Z,87.96
2019-03-24T05:16:03.857Z,88.66
2019-03-24T05:20:07.781Z,89.11
2019-03-24T05:24:09.879Z,88.48
2019-03-24T05:28:11.788Z,88.89
2019-03-24T05:32:13.710Z,89.59
2019-03-24T05:36:15.610Z,90.76
2019-03-24T05:40:17.535Z,91.12
2019-03-24T05:44:26.139Z,90.86
2019-03-24T05:48:29.028Z,91.68
2019-03-24T05:52:30.932Z,91.75
2019-03-24T05:56:32.900Z,91.91
2019-03-24T06:00:34.866Z,92.51
2019-03-24T06:04:36.772Z,92.81
2019-03-24T06:08:38.702Z,93.12
2019-03-24T06:12:40.998Z,93.55
2019-03-24T06:16:42.911Z,93.94
2019-03-24T06:20:44.823Z,94.37
2019-03-24T06:24:47.003Z,94.86
2019-03-24T06:28:48.895Z,94.85
2019-03-24T06:32:50.813Z,94.78
2019-03-24T06:36:52.733Z,94.60
2019-03-24T06:40:54.643Z,94.36
2019-03-24T06:44:56.568Z,94.33
2019-03-24T06:48:59.461Z,93.94
2019-03-24T06:53:01.570Z,93.49
2019-03-24T06:57:03.459Z,93.00
2019-03-24T07:01:05.386Z,92.36
2019-03-24T07:05:07.694Z,91.95
2019-03-24T07:09:09.615Z,91.19
2019-03-24T07:13:11.510Z,90.73
2019-03-24T07:17:13.428Z,90.29
2019-03-24T07:21:15.357Z,89.04
2019-03-24T07:25:17.257Z,88.37
2019-03-24T07:29:19.169Z,87.60
2019-03-24T07:33:21.111Z,87.35
2019-03-24T07:37:23.007Z,86.41
2019-03-24T07:41:24.932Z,85.87
2019-03-24T07:45:26.861Z,86.07
2019-03-24T07:49:28.889Z,85.06
2019-03-24T07:53:30.791Z,83.17
2019-03-24T07:57:32.933Z,82.83
2019-03-24T08:01:34.885Z,82.97
2019-03-24T08:05:36.803Z,81.52
2019-03-24T08:09:38.726Z,81.82
2019-03-24T08:13:41.106Z,81.65
2019-03-24T08:17:59.278Z,81.60
2019-03-24T08:22:01.175Z,79.35
2019-03-24T08:26:03.263Z,79.17
2019-03-24T08:30:07.550Z,79.11
2019-03-24T08:34:09.446Z,78.12
2019-03-24T08:38:11.352Z,79.27
2019-03-24T08:42:13.250Z,77.79
2019-03-24T08:46:15.201Z,76.47
2019-03-24T08:50:17.166Z,76.72
2019-03-24T08:54:19.069Z,75.58
2019-03-24T08:58:20.968Z,76.34
2019-03-24T09:02:23.130Z,75.62
2019-03-24T09:06:25.037Z,75.52
2019-03-24T09:10:26.966Z,74.92
2019-03-24T09:14:28.858Z,73.62
2019-03-24T09:18:30.774Z,73.56
2019-03-24T09:22:32.688Z,72.01
2019-03-24T09:26:34.626Z,71.59
2019-03-24T09:30:37.928Z,71.32
2019-03-24T09:34:41.108Z,71.79
2019-03-24T09:38:44.093Z,70.39
2019-03-24T09:42:46.019Z,69.78
2019-03-24T09:46:47.939Z,69.49
2019-03-24T09:50:49.871Z,69.24
2019-03-24T09:54:51.802Z,68.05
2019-03-24T09:58:53.744Z,66.00
2019-03-24T10:02:55.717Z,64.48
2019-03-24T10:06:57.651Z,64.57
2019-03-24T10:11:15.606Z,64.04
2019-03-24T10:15:18.295Z,63.90
2019-03-24T10:19:20.212Z,61.62
2019-03-24T10:23:22.126Z,59.76
2019-03-24T10:27:24.046Z,59.75
2019-03-24T10:31:25.956Z,58.37
2019-03-24T10:35:27.880Z,57.76
2019-03-24T10:39:31.851Z,56.42
2019-03-24T10:43:33.467Z,57.18
2019-03-24T10:47:35.406Z,57.64
2019-03-24T10:51:37.315Z,56.90
2019-03-24T10:55:39.281Z,56.54
2019-03-24T10:59:41.341Z,55.82
2019-03-24T11:03:43.274Z,56.57
2019-03-24T11:07:45.273Z,55.55
2019-03-24T11:11:47.208Z,54.59
2019-03-24T11:15:49.363Z,52.47
2019-03-24T11:19:51.276Z,52.94
2019-03-24T11:23:54.277Z,51.09
2019-03-24T11:27:56.217Z,50.89
2019-03-24T11:31:58.127Z,51.17
2019-03-24T11:36:00.059Z,50.90
2019-03-24T11:40:01.988Z,51.59
2019-03-24T11:44:03.992Z,51.93
2019-03-24T11:48:06.693Z,52.78
2019-03-24T11:52:08.684Z,53.14
2019-03-24T11:56:10.842Z,52.29
2019-03-24T12:00:17.674Z,52.33
2019-03-24T12:04:19.596Z,51.88
2019-03-24T12:08:21.537Z,52.24
2019-03-24T12:12:23.448Z,52.55
2019-03-24T12:16:25.566Z,50.93
2019-03-24T12:20:27.504Z,50.62
2019-03-24T12:24:29.449Z,50.73
2019-03-24T12:28:31.389Z,50.80
2019-03-24T12:32:33.322Z,50.46
2019-03-24T12:36:35.230Z,50.33
2019-03-24T12:40:37.152Z,50.18
2019-03-24T12:44:39.062Z,49.27
2019-03-24T12:48:41.409Z,48.81
2019-03-24T12:52:43.350Z,50.32
2019-03-24T12:56:45.274Z,49.13
2019-03-24T13:00:47.201Z,49.25
2019-03-24T13:04:59.273Z,47.95
2019-03-24T13:09:01.642Z,48.07
2019-03-24T13:13:04.912Z,48.06
2019-03-24T13:17:06.910Z,46.66
2019-03-24T13:21:08.901Z,45.60
2019-03-24T13:25:11.145Z,45.06
2019-03-24T13:29:13.054Z,45.36
2019-03-24T13:33:14.980Z,45.69
2019-03-24T13:37:16.890Z,44.69
2019-03-24T13:41:18.816Z,45.38
2019-03-24T13:45:20.799Z,45.59
2019-03-24T13:49:22.727Z,47.40
2019-03-24T13:53:24.865Z,48.60
2019-03-24T13:57:26.847Z,49.77
2019-03-24T14:01:29.815Z,49.66
2019-03-24T14:05:31.739Z,49.41
2019-03-24T14:09:33.688Z,49.21
2019-03-24T14:13:35.646Z,49.21
2019-03-24T14:17:37.941Z,49.72
2019-03-24T14:21:39.872Z,50.34
2019-03-24T14:25:41.779Z,51.49
2019-03-24T14:29:43.720Z,51.68
2019-03-24T14:33:53.755Z,51.45
2019-03-24T14:37:55.678Z,52.95
2019-03-24T14:41:57.587Z,52.25
2019-03-24T14:45:59.506Z,52.74
2019-03-24T14:50:01.726Z,52.26
2019-03-24T14:54:03.649Z,53.39
2019-03-24T14:58:05.581Z,53.44
2019-03-24T15:02:07.952Z,54.22
2019-03-24T15:06:09.856Z,54.30
2019-03-24T15:10:12.195Z,55.69
2019-03-24T15:14:15.135Z,56.13
2019-03-24T15:18:17.041Z,57.41
2019-03-24T15:22:18.952Z,57.62
2019-03-24T15:26:20.893Z,58.40
2019-03-24T15:30:22.916Z,58.43
2019-03-24T15:34:25.087Z,58.52
2019-03-24T15:38:27.001Z,58.66
2019-03-24T15:42:28.932Z,59.45
2019-03-24T15:46:30.843Z,59.55
2019-03-24T15:50:32.847Z,59.99
2019-03-24T15:54:34.750Z,60.90
2019-03-24T15:58:36.676Z,61.08
2019-03-24T16:02:38.597Z,60.32
2019-03-24T16:06:41.585Z,60.34
2019-03-24T16:10:51.709Z,60.30
2019-03-24T16:14:53.717Z,60.79
2019-03-24T16:18:55.691Z,60.60
2019-03-24T16:22:57.616Z,60.65
2019-03-24T16:26:59.530Z,60.33
2019-03-24T16:31:01.716Z,60.87
2019-03-24T16:35:04.463Z,61.45
2019-03-24T16:39:09.006Z,62.28
2019-03-24T16:43:10.928Z,63.11
2019-03-24T16:47:12.856Z,63.12
2019-03-24T16:51:14.773Z,63.36
2019-03-24T16:55:16.693Z,63.07
2019-03-24T16:59:18.610Z,63.50
2019-03-24T17:03:21.518Z,63.43
2019-03-24T17:07:23.453Z,63.42
2019-03-24T17:11:25.382Z,64.05
2019-03-24T17:15:27.357Z,65.11
2019-03-24T17:19:29.275Z,65.50
2019-03-24T17:23:31.195Z,66.13
2019-03-24T17:27:33.111Z,66.49
2019-03-24T17:31:35.029Z,66.82
2019-03-24T17:35:38.082Z,67.14
2019-03-24T17:39:40.022Z,67.60
2019-03-24T17:43:41.957Z,67.65
2019-03-24T17:47:43.937Z,67.86
2019-03-24T17:51:45.920Z,68.51
2019-03-24T17:55:55.598Z,68.76
2019-03-24T17:59:57.520Z,69.25
2019-03-24T18:03:59.445Z,70.17
2019-03-24T18:08:01.356Z,70.73
2019-03-24T18:12:03.282Z,70.97
2019-03-24T18:16:05.524Z,70.99
2019-03-24T18:20:09.543Z,71.27
2019-03-24T18:24:11.520Z,71.62
2019-03-24T18:28:13.420Z,72.10
2019-03-24T18:32:15.593Z,72.34
2019-03-24T18:36:17.498Z,72.10
2019-03-24T18:40:20.644Z,72.39
2019-03-24T18:44:22.565Z,72.47
2019-03-24T18:48:24.476Z,72.16
2019-03-24T18:52:26.397Z,71.75
2019-03-24T18:56:28.326Z,71.78
2019-03-24T19:00:30.256Z,72.18
2019-03-24T19:04:32.277Z,72.56
2019-03-24T19:08:34.195Z,72.50
2019-03-24T19:12:36.277Z,72.64
2019-03-24T19:16:38.191Z,72.78
2019-03-24T19:20:40.103Z,72.85
2019-03-24T19:24:42.002Z,72.95
2019-03-24T19:28:43.941Z,72.66
2019-03-24T19:32:46.300Z,72.25
2019-03-24T19:36:50.117Z,72.25
2019-03-24T19:40:52.037Z,71.93
2019-03-24T19:44:53.978Z,71.72
2019-03-24T19:48:55.881Z,72.27
2019-03-24T19:52:57.784Z,72.08
2019-03-24T19:56:59.763Z,72.32
2019-03-24T20:01:01.863Z,72.51
2019-03-24T20:05:03.920Z,72.42
2019-03-24T20:09:09.186Z,72.99
2019-03-24T20:13:11.110Z,73.26
2019-03-24T20:17:13.021Z,73.56
2019-03-24T20:21:14.944Z,73.58
2019-03-24T20:25:16.829Z,73.95
2019-03-24T20:29:18.735Z,74.43
2019-03-24T20:33:20.720Z,74.70
2019-03-24T20:37:22.700Z,74.95
2019-03-24T20:41:28.576Z,74.84
2019-03-24T20:45:30.496Z,75.02
2019-03-24T20:49:32.388Z,75.13
2019-03-24T20:53:34.281Z,75.31
2019-03-24T20:57:36.201Z,75.99
2019-03-24T21:01:38.093Z,76.09
2019-03-24T21:05:40.002Z,76.53
2019-03-24T21:09:41.967Z,76.72
2019-03-24T21:13:45.266Z,76.51
2019-03-24T21:17:47.144Z,76.52
2019-03-24T21:21:49.082Z,76.53
2019-03-24T21:25:50.978Z,76.56
2019-03-24T21:29:52.887Z,77.04
2019-03-24T21:33:54.786Z,77.01
2019-03-24T21:37:56.691Z,77.45
2019-03-24T21:41:58.614Z,77.00
2019-03-24T21:46:00.673Z,76.33
2019-03-24T21:50:02.649Z,76.31
2019-03-24T21:54:04.917Z,76.87
2019-03-24T21:58:06.987Z,77.38
2019-03-24T22:02:09.001Z,77.33
2019-03-24T22:06:11.093Z,78.06
2019-03-24T22:10:22.441Z,77.94
2019-03-24T22:14:24.348Z,77.88
2019-03-24T22:18:27.212Z,77.86
2019-03-24T22:22:29.176Z,78.09
2019-03-24T22:26:31.076Z,78.96
2019-03-24T22:30:32.990Z,79.08
2019-03-24T22:34:34.889Z,78.55
2019-03-24T22:38:36.847Z,78.73
2019-03-24T22:42:38.761Z,78.25
2019-03-24T22:46:42.738Z,78.27
2019-03-24T22:50:44.649Z,78.66
2019-03-24T22:54:46.560Z,78.92
2019-03-24T22:58:48.471Z,78.93
2019-03-24T23:02:50.362Z,78.85
2019-03-24T23:06:52.274Z,79.13
2019-03-24T23:10:54.292Z,79.56
2019-03-24T23:14:56.190Z,79.78
2019-03-24T23:18:58.098Z,80.31
2019-03-24T23:23:00.010Z,80.86
2019-03-24T23:27:02.805Z,81.21
2019-03-24T23:31:04.726Z,81.18
2019-03-24T23:35:09.592Z,81.29
2019-03-24T23:39:11.502Z,81.53
2019-03-24T23:43:13.401Z,81.47
2019-03-24T23:47:15.329Z,82.20
2019-03-24T23:51:18.174Z,82.70
2019-03-24T23:55:21.042Z,82.74
2019-03-24T23:59:22.965Z,82.61
